sensor_id;sensor_type;location;lat;lon;timestamp;pressure;altitude;pressure_sealevel;temperature;humidity
66479;BME280;53294;47.912;13.526;2023-12-14T00:00:09;94999.56;;;5.66;84.41
66479;BME280;53294;47.912;13.526;2023-12-14T00:02:36;95002.97;;;5.85;82.84
66479;BME280;53294;47.912;13.526;2023-12-14T00:05:03;94995.63;;;5.77;83.61
66479;BME280;53294;47.912;13.526;2023-12-14T00:07:30;95004.47;;;5.58;84.00
66479;BME280;53294;47.912;13.526;2023-12-14T00:09:57;95004.97;;;5.61;84.54
66479;BME280;53294;47.912;13.526;2023-12-14T00:12:24;95008.00;;;5.54;83.65
66479;BME280;53294;47.912;13.526;2023-12-14T00:14:51;95007.72;;;5.55;84.10
66479;BME280;53294;47.912;13.526;2023-12-14T00:17:17;95012.75;;;5.57;84.18
66479;BME280;53294;47.912;13.526;2023-12-14T00:19:44;95018.81;;;5.63;83.61
66479;BME280;53294;47.912;13.526;2023-12-14T00:22:12;95015.31;;;5.29;83.65
66479;BME280;53294;47.912;13.526;2023-12-14T00:24:38;95023.94;;;5.40;85.30
66479;BME280;53294;47.912;13.526;2023-12-14T00:27:05;95024.03;;;5.68;83.97
66479;BME280;53294;47.912;13.526;2023-12-14T00:29:32;95029.94;;;5.65;83.43
66479;BME280;53294;47.912;13.526;2023-12-14T00:31:58;95024.47;;;5.23;84.97
66479;BME280;53294;47.912;13.526;2023-12-14T00:34:25;95023.00;;;5.31;86.34
66479;BME280;53294;47.912;13.526;2023-12-14T00:36:52;95037.53;;;5.38;85.54
66479;BME280;53294;47.912;13.526;2023-12-14T00:39:19;95039.06;;;5.26;85.49
66479;BME280;53294;47.912;13.526;2023-12-14T00:41:46;95045.56;;;5.19;86.30
66479;BME280;53294;47.912;13.526;2023-12-14T00:44:12;95053.19;;;5.07;86.30
66479;BME280;53294;47.912;13.526;2023-12-14T00:46:39;95047.41;;;5.00;86.58
66479;BME280;53294;47.912;13.526;2023-12-14T00:49:08;95062.00;;;4.83;88.46
66479;BME280;53294;47.912;13.526;2023-12-14T00:51:34;95054.69;;;5.13;88.13
66479;BME280;53294;47.912;13.526;2023-12-14T00:54:01;95056.28;;;5.33;86.87
66479;BME280;53294;47.912;13.526;2023-12-14T00:56:28;95057.25;;;5.37;86.55
66479;BME280;53294;47.912;13.526;2023-12-14T00:58:55;95064.44;;;5.56;85.24
66479;BME280;53294;47.912;13.526;2023-12-14T01:01:21;95068.41;;;5.58;85.08
66479;BME280;53294;47.912;13.526;2023-12-14T01:03:48;95072.09;;;5.63;84.73
66479;BME280;53294;47.912;13.526;2023-12-14T01:06:15;95070.78;;;5.60;84.84
66479;BME280;53294;47.912;13.526;2023-12-14T01:08:42;95075.31;;;5.40;86.37
66479;BME280;53294;47.912;13.526;2023-12-14T01:11:08;95077.41;;;5.63;85.51
66479;BME280;53294;47.912;13.526;2023-12-14T01:13:35;95083.72;;;5.67;84.70
66479;BME280;53294;47.912;13.526;2023-12-14T01:16:02;95084.09;;;5.60;84.48
66479;BME280;53294;47.912;13.526;2023-12-14T01:18:29;95087.66;;;5.88;83.30
66479;BME280;53294;47.912;13.526;2023-12-14T01:20:56;95093.78;;;5.89;82.57
66479;BME280;53294;47.912;13.526;2023-12-14T01:23:22;95101.81;;;5.51;85.17
66479;BME280;53294;47.912;13.526;2023-12-14T01:25:49;95100.19;;;5.55;85.67
66479;BME280;53294;47.912;13.526;2023-12-14T01:28:16;95101.44;;;5.57;85.70
66479;BME280;53294;47.912;13.526;2023-12-14T01:30:43;95109.75;;;5.37;86.70
66479;BME280;53294;47.912;13.526;2023-12-14T01:33:10;95115.28;;;5.21;88.02
66479;BME280;53294;47.912;13.526;2023-12-14T01:35:37;95113.91;;;5.05;89.04
66479;BME280;53294;47.912;13.526;2023-12-14T01:38:03;95109.56;;;5.09;89.83
66479;BME280;53294;47.912;13.526;2023-12-14T01:40:30;95115.91;;;5.13;90.30
66479;BME280;53294;47.912;13.526;2023-12-14T01:43:15;95128.59;;;5.21;89.67
66479;BME280;53294;47.912;13.526;2023-12-14T01:45:42;95114.84;;;5.33;89.78
66479;BME280;53294;47.912;13.526;2023-12-14T01:48:08;95118.00;;;5.35;89.48
66479;BME280;53294;47.912;13.526;2023-12-14T01:50:35;95129.03;;;5.29;89.18
66479;BME280;53294;47.912;13.526;2023-12-14T01:53:02;95123.06;;;5.37;89.69
66479;BME280;53294;47.912;13.526;2023-12-14T01:55:29;95131.91;;;5.32;89.96
66479;BME280;53294;47.912;13.526;2023-12-14T01:57:56;95129.81;;;5.48;88.96
66479;BME280;53294;47.912;13.526;2023-12-14T02:01:18;95127.88;;;5.35;88.93
66479;BME280;53294;47.912;13.526;2023-12-14T02:03:16;95133.91;;;5.21;89.96
66479;BME280;53294;47.912;13.526;2023-12-14T02:05:43;95133.78;;;5.32;89.61
66479;BME280;53294;47.912;13.526;2023-12-14T02:08:10;95136.53;;;5.27;90.31
66479;BME280;53294;47.912;13.526;2023-12-14T02:10:36;95145.69;;;5.15;91.51
66479;BME280;53294;47.912;13.526;2023-12-14T02:13:03;95145.66;;;5.20;91.18
66479;BME280;53294;47.912;13.526;2023-12-14T02:15:30;95145.13;;;5.18;91.44
66479;BME280;53294;47.912;13.526;2023-12-14T02:17:57;95149.84;;;5.27;91.29
66479;BME280;53294;47.912;13.526;2023-12-14T02:20:24;95152.50;;;5.27;91.61
66479;BME280;53294;47.912;13.526;2023-12-14T02:22:54;95149.47;;;5.14;91.69
66479;BME280;53294;47.912;13.526;2023-12-14T02:25:22;95152.16;;;5.09;92.61
66479;BME280;53294;47.912;13.526;2023-12-14T02:27:49;95155.34;;;5.11;93.11
66479;BME280;53294;47.912;13.526;2023-12-14T02:30:17;95155.84;;;5.13;93.22
66479;BME280;53294;47.912;13.526;2023-12-14T02:32:44;95154.53;;;5.11;93.51
66479;BME280;53294;47.912;13.526;2023-12-14T02:35:11;95164.41;;;5.10;94.10
66479;BME280;53294;47.912;13.526;2023-12-14T02:37:38;95167.00;;;5.15;94.02
66479;BME280;53294;47.912;13.526;2023-12-14T02:40:08;95164.06;;;5.17;93.75
66479;BME280;53294;47.912;13.526;2023-12-14T02:42:35;95167.28;;;5.14;94.05
66479;BME280;53294;47.912;13.526;2023-12-14T02:45:03;95163.72;;;5.24;93.55
66479;BME280;53294;47.912;13.526;2023-12-14T02:47:30;95169.06;;;5.24;93.43
66479;BME280;53294;47.912;13.526;2023-12-14T02:49:57;95166.59;;;5.27;92.87
66479;BME280;53294;47.912;13.526;2023-12-14T02:52:23;95169.38;;;5.17;92.35
66479;BME280;53294;47.912;13.526;2023-12-14T02:54:50;95173.81;;;5.27;91.80
66479;BME280;53294;47.912;13.526;2023-12-14T02:57:17;95171.19;;;5.21;92.70
66479;BME280;53294;47.912;13.526;2023-12-14T02:59:44;95168.47;;;5.27;92.30
66479;BME280;53294;47.912;13.526;2023-12-14T03:02:11;95171.34;;;5.30;91.92
66479;BME280;53294;47.912;13.526;2023-12-14T03:04:38;95178.97;;;5.37;91.32
66479;BME280;53294;47.912;13.526;2023-12-14T03:07:06;95181.81;;;5.46;90.65
66479;BME280;53294;47.912;13.526;2023-12-14T03:09:33;95193.16;;;5.51;90.20
66479;BME280;53294;47.912;13.526;2023-12-14T03:12:00;95187.94;;;5.65;89.39
66479;BME280;53294;47.912;13.526;2023-12-14T03:14:31;95184.25;;;5.80;87.42
66479;BME280;53294;47.912;13.526;2023-12-14T03:16:59;95193.53;;;5.64;88.32
66479;BME280;53294;47.912;13.526;2023-12-14T03:19:26;95197.34;;;5.57;88.51
66479;BME280;53294;47.912;13.526;2023-12-14T03:21:53;95201.63;;;5.58;88.74
66479;BME280;53294;47.912;13.526;2023-12-14T03:24:20;95204.00;;;5.60;88.45
66479;BME280;53294;47.912;13.526;2023-12-14T03:26:47;95208.38;;;5.51;88.72
66479;BME280;53294;47.912;13.526;2023-12-14T03:29:13;95207.50;;;5.55;88.31
66479;BME280;53294;47.912;13.526;2023-12-14T03:31:40;95206.56;;;5.46;89.16
66479;BME280;53294;47.912;13.526;2023-12-14T03:34:07;95217.59;;;5.58;87.75
66479;BME280;53294;47.912;13.526;2023-12-14T03:36:34;95224.03;;;5.77;86.48
66479;BME280;53294;47.912;13.526;2023-12-14T03:39:01;95222.16;;;5.77;85.38
66479;BME280;53294;47.912;13.526;2023-12-14T03:41:27;95221.22;;;5.68;86.37
66479;BME280;53294;47.912;13.526;2023-12-14T03:43:54;95217.16;;;5.51;86.61
66479;BME280;53294;47.912;13.526;2023-12-14T03:46:21;95224.94;;;5.48;87.34
66479;BME280;53294;47.912;13.526;2023-12-14T03:48:48;95228.16;;;5.45;87.60
66479;BME280;53294;47.912;13.526;2023-12-14T03:51:20;95230.22;;;5.29;88.48
66479;BME280;53294;47.912;13.526;2023-12-14T03:53:47;95231.31;;;5.47;88.25
66479;BME280;53294;47.912;13.526;2023-12-14T03:56:14;95233.84;;;5.38;87.42
66479;BME280;53294;47.912;13.526;2023-12-14T03:58:41;95245.56;;;5.37;88.36
66479;BME280;53294;47.912;13.526;2023-12-14T04:01:07;95245.88;;;5.54;87.36
66479;BME280;53294;47.912;13.526;2023-12-14T04:03:34;95245.38;;;5.28;88.75
66479;BME280;53294;47.912;13.526;2023-12-14T04:06:01;95252.91;;;5.45;87.98
66479;BME280;53294;47.912;13.526;2023-12-14T04:08:28;95252.53;;;5.33;89.09
66479;BME280;53294;47.912;13.526;2023-12-14T04:10:54;95254.50;;;5.46;87.63
66479;BME280;53294;47.912;13.526;2023-12-14T04:13:21;95264.41;;;5.65;85.65
66479;BME280;53294;47.912;13.526;2023-12-14T04:15:48;95267.56;;;5.67;86.72
66479;BME280;53294;47.912;13.526;2023-12-14T04:18:15;95267.19;;;5.54;86.79
66479;BME280;53294;47.912;13.526;2023-12-14T04:20:42;95276.59;;;5.71;86.14
66479;BME280;53294;47.912;13.526;2023-12-14T04:23:08;95275.44;;;5.77;85.24
66479;BME280;53294;47.912;13.526;2023-12-14T04:25:35;95279.75;;;5.73;85.83
66479;BME280;53294;47.912;13.526;2023-12-14T04:28:02;95292.53;;;5.52;86.42
66479;BME280;53294;47.912;13.526;2023-12-14T04:30:29;95290.16;;;5.50;86.94
66479;BME280;53294;47.912;13.526;2023-12-14T04:32:55;95308.75;;;5.55;86.59
66479;BME280;53294;47.912;13.526;2023-12-14T04:35:22;95294.22;;;5.67;85.99
66479;BME280;53294;47.912;13.526;2023-12-14T04:37:49;95314.19;;;5.69;86.04
66479;BME280;53294;47.912;13.526;2023-12-14T04:40:16;95310.56;;;5.84;85.29
66479;BME280;53294;47.912;13.526;2023-12-14T04:42:43;95323.69;;;5.51;85.49
66479;BME280;53294;47.912;13.526;2023-12-14T04:45:10;95319.88;;;5.63;85.82
66479;BME280;53294;47.912;13.526;2023-12-14T04:47:36;95325.97;;;5.63;86.20
66479;BME280;53294;47.912;13.526;2023-12-14T04:50:03;95318.84;;;5.58;86.28
66479;BME280;53294;47.912;13.526;2023-12-14T04:52:30;95324.34;;;5.43;87.64
66479;BME280;53294;47.912;13.526;2023-12-14T04:54:57;95323.94;;;5.55;87.27
66479;BME280;53294;47.912;13.526;2023-12-14T04:57:24;95330.53;;;5.63;86.87
66479;BME280;53294;47.912;13.526;2023-12-14T04:59:51;95329.03;;;5.51;87.50
66479;BME280;53294;47.912;13.526;2023-12-14T05:02:17;95341.84;;;5.49;88.00
66479;BME280;53294;47.912;13.526;2023-12-14T05:04:44;95346.38;;;5.49;87.79
66479;BME280;53294;47.912;13.526;2023-12-14T05:07:11;95350.09;;;5.24;89.37
66479;BME280;53294;47.912;13.526;2023-12-14T05:09:38;95348.88;;;5.11;90.54
66479;BME280;53294;47.912;13.526;2023-12-14T05:12:05;95360.19;;;5.27;89.76
66479;BME280;53294;47.912;13.526;2023-12-14T05:14:33;95361.44;;;5.34;89.62
66479;BME280;53294;47.912;13.526;2023-12-14T05:17:00;95359.66;;;5.25;90.25
66479;BME280;53294;47.912;13.526;2023-12-14T05:19:26;95352.56;;;5.15;90.21
66479;BME280;53294;47.912;13.526;2023-12-14T05:21:53;95363.78;;;5.12;91.08
66479;BME280;53294;47.912;13.526;2023-12-14T05:24:20;95373.66;;;5.11;91.44
66479;BME280;53294;47.912;13.526;2023-12-14T05:26:47;95368.13;;;5.32;89.80
66479;BME280;53294;47.912;13.526;2023-12-14T05:29:14;95371.44;;;5.18;89.97
66479;BME280;53294;47.912;13.526;2023-12-14T05:31:41;95384.94;;;4.98;91.59
66479;BME280;53294;47.912;13.526;2023-12-14T05:34:07;95386.53;;;4.99;92.47
66479;BME280;53294;47.912;13.526;2023-12-14T05:36:34;95390.75;;;5.05;92.23
66479;BME280;53294;47.912;13.526;2023-12-14T05:39:01;95390.59;;;5.20;91.48
66479;BME280;53294;47.912;13.526;2023-12-14T05:41:30;95391.66;;;5.19;91.50
66479;BME280;53294;47.912;13.526;2023-12-14T05:43:56;95396.34;;;4.98;93.08
66479;BME280;53294;47.912;13.526;2023-12-14T05:46:23;95397.88;;;5.10;92.95
66479;BME280;53294;47.912;13.526;2023-12-14T05:48:50;95404.47;;;5.17;92.24
66479;BME280;53294;47.912;13.526;2023-12-14T05:51:32;95403.25;;;5.34;90.95
66479;BME280;53294;47.912;13.526;2023-12-14T05:53:59;95413.47;;;5.27;90.36
66479;BME280;53294;47.912;13.526;2023-12-14T05:56:26;95430.44;;;5.31;90.67
66479;BME280;53294;47.912;13.526;2023-12-14T05:58:53;95419.72;;;5.41;90.41
66479;BME280;53294;47.912;13.526;2023-12-14T06:01:20;95420.50;;;5.42;90.07
66479;BME280;53294;47.912;13.526;2023-12-14T06:03:47;95427.09;;;5.49;88.33
66479;BME280;53294;47.912;13.526;2023-12-14T06:06:14;95433.75;;;5.47;88.38
66479;BME280;53294;47.912;13.526;2023-12-14T06:08:41;95442.69;;;5.32;88.92
66479;BME280;53294;47.912;13.526;2023-12-14T06:11:08;95434.97;;;5.30;88.76
66479;BME280;53294;47.912;13.526;2023-12-14T06:13:35;95439.66;;;5.14;89.75
66479;BME280;53294;47.912;13.526;2023-12-14T06:16:02;95445.78;;;5.44;88.20
66479;BME280;53294;47.912;13.526;2023-12-14T06:18:30;95456.25;;;5.65;86.88
66479;BME280;53294;47.912;13.526;2023-12-14T06:20:57;95450.50;;;5.52;87.55
66479;BME280;53294;47.912;13.526;2023-12-14T06:23:23;95449.31;;;5.34;88.42
66479;BME280;53294;47.912;13.526;2023-12-14T06:25:52;95457.56;;;5.38;88.73
66479;BME280;53294;47.912;13.526;2023-12-14T06:28:19;95465.13;;;5.26;89.03
66479;BME280;53294;47.912;13.526;2023-12-14T06:30:45;95467.44;;;5.32;89.47
66479;BME280;53294;47.912;13.526;2023-12-14T06:33:12;95471.38;;;5.40;88.91
66479;BME280;53294;47.912;13.526;2023-12-14T06:35:39;95470.88;;;5.38;89.20
66479;BME280;53294;47.912;13.526;2023-12-14T06:38:06;95484.03;;;5.58;87.73
66479;BME280;53294;47.912;13.526;2023-12-14T06:40:33;95492.63;;;5.50;87.42
66479;BME280;53294;47.912;13.526;2023-12-14T06:42:59;95496.03;;;5.85;84.59
66479;BME280;53294;47.912;13.526;2023-12-14T06:45:26;95489.56;;;5.97;83.94
66479;BME280;53294;47.912;13.526;2023-12-14T06:47:53;95501.22;;;5.71;85.48
66479;BME280;53294;47.912;13.526;2023-12-14T06:50:20;95503.25;;;5.85;84.72
66479;BME280;53294;47.912;13.526;2023-12-14T06:52:47;95508.34;;;5.81;85.16
66479;BME280;53294;47.912;13.526;2023-12-14T06:55:13;95513.13;;;5.79;85.37
66479;BME280;53294;47.912;13.526;2023-12-14T06:57:44;95515.38;;;5.67;85.77
66479;BME280;53294;47.912;13.526;2023-12-14T07:00:14;95530.38;;;5.57;86.45
66479;BME280;53294;47.912;13.526;2023-12-14T07:02:40;95528.31;;;5.49;87.46
66479;BME280;53294;47.912;13.526;2023-12-14T07:05:07;95537.31;;;5.58;87.67
66479;BME280;53294;47.912;13.526;2023-12-14T07:07:34;95543.19;;;5.55;87.99
66479;BME280;53294;47.912;13.526;2023-12-14T07:10:01;95544.69;;;5.67;87.38
66479;BME280;53294;47.912;13.526;2023-12-14T07:12:28;95553.53;;;5.62;87.58
66479;BME280;53294;47.912;13.526;2023-12-14T07:14:54;95557.56;;;5.54;87.82
66479;BME280;53294;47.912;13.526;2023-12-14T07:17:21;95557.13;;;5.42;88.96
66479;BME280;53294;47.912;13.526;2023-12-14T07:19:51;95559.31;;;5.35;88.75
66479;BME280;53294;47.912;13.526;2023-12-14T07:22:17;95568.97;;;5.26;89.38
66479;BME280;53294;47.912;13.526;2023-12-14T07:24:44;95572.16;;;5.28;89.97
66479;BME280;53294;47.912;13.526;2023-12-14T07:27:21;95575.78;;;5.42;89.42
66479;BME280;53294;47.912;13.526;2023-12-14T07:29:48;95581.59;;;5.49;88.64
66479;BME280;53294;47.912;13.526;2023-12-14T07:32:15;95580.00;;;5.48;87.90
66479;BME280;53294;47.912;13.526;2023-12-14T07:34:43;95591.00;;;5.76;85.28
66479;BME280;53294;47.912;13.526;2023-12-14T07:37:10;95604.03;;;5.78;84.32
66479;BME280;53294;47.912;13.526;2023-12-14T07:39:38;95596.66;;;5.69;84.20
66479;BME280;53294;47.912;13.526;2023-12-14T07:42:05;95613.47;;;5.65;84.40
66479;BME280;53294;47.912;13.526;2023-12-14T07:44:32;95609.09;;;5.79;82.72
66479;BME280;53294;47.912;13.526;2023-12-14T07:47:00;95612.03;;;5.38;84.92
66479;BME280;53294;47.912;13.526;2023-12-14T07:49:27;95613.53;;;5.54;84.75
66479;BME280;53294;47.912;13.526;2023-12-14T07:51:53;95622.44;;;5.34;85.37
66479;BME280;53294;47.912;13.526;2023-12-14T07:54:22;95627.88;;;5.58;84.61
66479;BME280;53294;47.912;13.526;2023-12-14T07:56:48;95628.19;;;5.97;82.37
66479;BME280;53294;47.912;13.526;2023-12-14T07:59:16;95627.28;;;5.72;83.29
66479;BME280;53294;47.912;13.526;2023-12-14T08:01:43;95642.81;;;5.54;84.92
66479;BME280;53294;47.912;13.526;2023-12-14T08:04:10;95637.38;;;5.75;84.00
66479;BME280;53294;47.912;13.526;2023-12-14T08:06:38;95640.06;;;5.75;84.60
66479;BME280;53294;47.912;13.526;2023-12-14T08:09:09;95652.94;;;5.57;84.85
66479;BME280;53294;47.912;13.526;2023-12-14T08:11:36;95652.91;;;5.63;85.20
66479;BME280;53294;47.912;13.526;2023-12-14T08:14:02;95656.41;;;5.58;84.16
66479;BME280;53294;47.912;13.526;2023-12-14T08:16:29;95655.88;;;5.56;85.09
66479;BME280;53294;47.912;13.526;2023-12-14T08:18:56;95666.53;;;5.56;85.91
66479;BME280;53294;47.912;13.526;2023-12-14T08:21:23;95667.84;;;5.58;85.89
66479;BME280;53294;47.912;13.526;2023-12-14T08:23:50;95674.31;;;5.42;85.85
66479;BME280;53294;47.912;13.526;2023-12-14T08:26:17;95676.22;;;5.42;85.86
66479;BME280;53294;47.912;13.526;2023-12-14T08:28:44;95682.41;;;5.21;87.27
66479;BME280;53294;47.912;13.526;2023-12-14T08:31:11;95686.72;;;5.17;88.31
66479;BME280;53294;47.912;13.526;2023-12-14T08:33:41;95690.78;;;5.54;86.24
66479;BME280;53294;47.912;13.526;2023-12-14T08:36:09;95690.38;;;5.32;87.69
66479;BME280;53294;47.912;13.526;2023-12-14T08:38:36;95697.28;;;5.38;87.82
66479;BME280;53294;47.912;13.526;2023-12-14T08:41:03;95702.00;;;5.51;87.42
66479;BME280;53294;47.912;13.526;2023-12-14T08:43:30;95711.63;;;5.42;87.63
66479;BME280;53294;47.912;13.526;2023-12-14T08:45:56;95714.28;;;5.42;86.78
66479;BME280;53294;47.912;13.526;2023-12-14T08:48:23;95714.06;;;5.33;87.81
66479;BME280;53294;47.912;13.526;2023-12-14T08:50:53;95727.00;;;5.61;85.53
66479;BME280;53294;47.912;13.526;2023-12-14T08:53:20;95726.00;;;5.46;86.07
66479;BME280;53294;47.912;13.526;2023-12-14T08:55:47;95731.09;;;5.43;85.78
66479;BME280;53294;47.912;13.526;2023-12-14T08:58:14;95732.72;;;5.88;84.43
66479;BME280;53294;47.912;13.526;2023-12-14T09:00:40;95735.47;;;5.73;82.93
66479;BME280;53294;47.912;13.526;2023-12-14T09:03:07;95744.38;;;5.48;84.10
66479;BME280;53294;47.912;13.526;2023-12-14T09:05:35;95749.13;;;5.61;84.50
66479;BME280;53294;47.912;13.526;2023-12-14T09:08:03;95753.06;;;5.74;83.53
66479;BME280;53294;47.912;13.526;2023-12-14T09:10:30;95761.47;;;5.91;83.09
66479;BME280;53294;47.912;13.526;2023-12-14T09:12:57;95755.44;;;5.75;83.70
66479;BME280;53294;47.912;13.526;2023-12-14T09:15:24;95772.50;;;5.80;82.57
66479;BME280;53294;47.912;13.526;2023-12-14T09:17:51;95774.94;;;5.66;83.50
66479;BME280;53294;47.912;13.526;2023-12-14T09:20:17;95786.09;;;5.73;82.87
66479;BME280;53294;47.912;13.526;2023-12-14T09:22:46;95776.94;;;6.00;81.77
66479;BME280;53294;47.912;13.526;2023-12-14T09:25:13;95784.69;;;5.91;81.51
66479;BME280;53294;47.912;13.526;2023-12-14T09:27:40;95791.56;;;6.02;81.85
66479;BME280;53294;47.912;13.526;2023-12-14T09:30:07;95793.06;;;6.24;80.94
66479;BME280;53294;47.912;13.526;2023-12-14T09:32:34;95798.28;;;6.00;81.67
66479;BME280;53294;47.912;13.526;2023-12-14T09:35:01;95797.16;;;6.06;81.90
66479;BME280;53294;47.912;13.526;2023-12-14T09:37:28;95800.50;;;5.72;83.53
66479;BME280;53294;47.912;13.526;2023-12-14T09:39:55;95800.91;;;6.05;81.80
66479;BME280;53294;47.912;13.526;2023-12-14T09:42:21;95803.81;;;6.08;81.63
66479;BME280;53294;47.912;13.526;2023-12-14T09:44:49;95800.47;;;6.32;80.70
66479;BME280;53294;47.912;13.526;2023-12-14T09:47:16;95801.34;;;6.22;81.93
66479;BME280;53294;47.912;13.526;2023-12-14T09:49:44;95804.03;;;6.17;82.15
66479;BME280;53294;47.912;13.526;2023-12-14T09:52:12;95809.09;;;6.14;83.13
66479;BME280;53294;47.912;13.526;2023-12-14T09:54:39;95817.16;;;6.08;82.36
66479;BME280;53294;47.912;13.526;2023-12-14T09:57:06;95818.94;;;6.23;82.54
66479;BME280;53294;47.912;13.526;2023-12-14T09:59:33;95828.88;;;6.57;80.56
66479;BME280;53294;47.912;13.526;2023-12-14T10:02:10;95828.25;;;6.26;81.07
66479;BME280;53294;47.912;13.526;2023-12-14T10:04:38;95828.13;;;6.02;82.05
66479;BME280;53294;47.912;13.526;2023-12-14T10:07:04;95831.81;;;6.06;82.63
66479;BME280;53294;47.912;13.526;2023-12-14T10:09:36;95821.94;;;6.11;81.91
66479;BME280;53294;47.912;13.526;2023-12-14T10:12:06;95825.50;;;5.97;82.91
66479;BME280;53294;47.912;13.526;2023-12-14T10:14:33;95835.78;;;6.14;82.08
66479;BME280;53294;47.912;13.526;2023-12-14T10:19:43;95829.97;;;6.51;80.43
66479;BME280;53294;47.912;13.526;2023-12-14T10:22:13;95830.06;;;6.75;79.09
66479;BME280;53294;47.912;13.526;2023-12-14T10:24:45;95838.50;;;6.53;79.56
66479;BME280;53294;47.912;13.526;2023-12-14T10:27:14;95837.75;;;6.42;80.85
66479;BME280;53294;47.912;13.526;2023-12-14T10:29:42;95832.75;;;6.36;79.95
66479;BME280;53294;47.912;13.526;2023-12-14T10:32:11;95852.59;;;6.14;80.65
66479;BME280;53294;47.912;13.526;2023-12-14T10:34:38;95849.72;;;6.00;83.07
66479;BME280;53294;47.912;13.526;2023-12-14T10:37:06;95853.06;;;6.26;81.50
66479;BME280;53294;47.912;13.526;2023-12-14T10:39:34;95848.75;;;6.36;81.07
66479;BME280;53294;47.912;13.526;2023-12-14T10:42:03;95858.38;;;6.32;81.62
66479;BME280;53294;47.912;13.526;2023-12-14T10:44:45;95871.44;;;6.33;81.38
66479;BME280;53294;47.912;13.526;2023-12-14T10:47:32;95867.88;;;6.43;81.53
66479;BME280;53294;47.912;13.526;2023-12-14T10:50:00;95858.66;;;6.70;79.46
66479;BME280;53294;47.912;13.526;2023-12-14T10:52:29;95874.03;;;6.83;77.81
66479;BME280;53294;47.912;13.526;2023-12-14T10:55:01;95874.97;;;7.03;76.57
66479;BME280;53294;47.912;13.526;2023-12-14T10:57:31;95876.09;;;6.91;78.00
66479;BME280;53294;47.912;13.526;2023-12-14T11:00:02;95879.22;;;6.69;78.81
66479;BME280;53294;47.912;13.526;2023-12-14T11:02:30;95877.06;;;6.26;80.36
66479;BME280;53294;47.912;13.526;2023-12-14T11:05:05;95885.66;;;6.13;81.38
66479;BME280;53294;47.912;13.526;2023-12-14T11:08:05;95899.50;;;6.15;81.78
66479;BME280;53294;47.912;13.526;2023-12-14T11:10:40;95904.31;;;6.13;79.63
66479;BME280;53294;47.912;13.526;2023-12-14T11:15:40;95901.06;;;6.26;79.42
66479;BME280;53294;47.912;13.526;2023-12-14T11:21:02;95910.00;;;6.01;81.34
66479;BME280;53294;47.912;13.526;2023-12-14T11:23:31;95913.16;;;6.08;79.77
66479;BME280;53294;47.912;13.526;2023-12-14T11:26:10;95914.09;;;6.33;80.15
66479;BME280;53294;47.912;13.526;2023-12-14T11:28:39;95921.81;;;6.40;79.82
66479;BME280;53294;47.912;13.526;2023-12-14T11:31:10;95915.44;;;6.36;80.71
66479;BME280;53294;47.912;13.526;2023-12-14T11:33:37;95927.75;;;6.21;80.70
66479;BME280;53294;47.912;13.526;2023-12-14T11:36:11;95934.16;;;6.25;80.86
66479;BME280;53294;47.912;13.526;2023-12-14T11:38:39;95924.22;;;6.36;81.32
66479;BME280;53294;47.912;13.526;2023-12-14T11:41:05;95933.09;;;6.21;81.86
66479;BME280;53294;47.912;13.526;2023-12-14T11:43:43;95941.38;;;6.20;81.76
66479;BME280;53294;47.912;13.526;2023-12-14T11:46:11;95928.13;;;6.59;79.68
66479;BME280;53294;47.912;13.526;2023-12-14T11:48:38;95933.03;;;6.42;79.93
66479;BME280;53294;47.912;13.526;2023-12-14T11:51:05;95931.94;;;6.43;81.50
66479;BME280;53294;47.912;13.526;2023-12-14T11:53:32;95934.44;;;6.74;80.71
66479;BME280;53294;47.912;13.526;2023-12-14T11:56:00;95934.09;;;6.86;79.94
66479;BME280;53294;47.912;13.526;2023-12-14T11:58:31;95938.03;;;6.98;78.65
66479;BME280;53294;47.912;13.526;2023-12-14T12:01:19;95929.38;;;7.12;77.10
66479;BME280;53294;47.912;13.526;2023-12-14T12:03:47;95923.78;;;7.08;77.32
66479;BME280;53294;47.912;13.526;2023-12-14T12:06:21;95922.78;;;7.04;76.96
66479;BME280;53294;47.912;13.526;2023-12-14T12:08:49;95931.06;;;7.03;77.04
66479;BME280;53294;47.912;13.526;2023-12-14T12:11:21;95925.19;;;7.00;77.35
66479;BME280;53294;47.912;13.526;2023-12-14T12:13:53;95930.91;;;6.83;78.27
66479;BME280;53294;47.912;13.526;2023-12-14T12:16:21;95935.38;;;6.93;78.91
66479;BME280;53294;47.912;13.526;2023-12-14T12:18:48;95933.72;;;7.03;77.08
66479;BME280;53294;47.912;13.526;2023-12-14T12:21:15;95932.44;;;6.95;76.21
66479;BME280;53294;47.912;13.526;2023-12-14T12:23:41;95938.63;;;6.85;77.53
66479;BME280;53294;47.912;13.526;2023-12-14T12:26:09;95929.44;;;7.01;76.46
66479;BME280;53294;47.912;13.526;2023-12-14T12:28:36;95935.41;;;6.88;77.83
66479;BME280;53294;47.912;13.526;2023-12-14T12:31:03;95940.38;;;6.65;78.13
66479;BME280;53294;47.912;13.526;2023-12-14T12:33:30;95945.94;;;6.74;78.94
66479;BME280;53294;47.912;13.526;2023-12-14T12:36:04;95944.69;;;6.96;77.25
66479;BME280;53294;47.912;13.526;2023-12-14T12:38:32;95945.84;;;6.85;77.86
66479;BME280;53294;47.912;13.526;2023-12-14T12:40:58;95933.84;;;6.87;79.18
66479;BME280;53294;47.912;13.526;2023-12-14T12:43:27;95938.34;;;6.87;79.37
66479;BME280;53294;47.912;13.526;2023-12-14T12:45:54;95936.41;;;6.97;78.22
66479;BME280;53294;47.912;13.526;2023-12-14T12:48:20;95939.81;;;6.69;79.51
66479;BME280;53294;47.912;13.526;2023-12-14T12:50:52;95948.88;;;6.73;80.45
66479;BME280;53294;47.912;13.526;2023-12-14T12:53:18;95944.25;;;6.83;80.09
66479;BME280;53294;47.912;13.526;2023-12-14T12:55:45;95944.97;;;6.94;79.57
66479;BME280;53294;47.912;13.526;2023-12-14T12:58:12;95946.16;;;6.78;80.36
66479;BME280;53294;47.912;13.526;2023-12-14T13:00:41;95959.28;;;6.69;80.26
66479;BME280;53294;47.912;13.526;2023-12-14T13:03:08;95957.00;;;6.97;78.31
66479;BME280;53294;47.912;13.526;2023-12-14T13:05:36;95967.84;;;6.66;79.62
66479;BME280;53294;47.912;13.526;2023-12-14T13:08:03;95966.63;;;6.43;81.02
66479;BME280;53294;47.912;13.526;2023-12-14T13:10:30;95969.81;;;6.40;81.15